Eulalia, Pennsylvania
Current Conditions -  °F | °C
As of 8:56 AM on Monday 20 Oct 2014 (Local Time) from KELZ Reporting Station
Overcast Overcast  
Wind Chill: 36°   Ceiling: 9000
Heat Index: 42°   Visibility: 10mi
Dew Point: 32°   Wind: 12mph
Humidity: 67%   Direction: 240°WSW
Pressure: 29.97"   Gusts: NA
Location:  41.7605°N, 77.9728°W
Report Text: KELZ 201256Z AUTO 24010KT 10SM BKN090 OVC100 06/00 A2997 RMK AO2 SLP165 T00560000
Loading
Personal Weather Stations






























Interactive Weather Map
Tropical Storm Tracking
New forecast layout! Learn more

10-Day Weather Forecast

Advertisements
Track Severe Weather on mobile